createdAt,value
2017-10-22T00:01:29.297Z,14.50
2017-10-22T00:03:55.543Z,15.70
2017-10-22T00:06:21.770Z,14.70
2017-10-22T00:08:48.028Z,14.20
2017-10-22T00:11:14.270Z,15.83
2017-10-22T00:13:41.313Z,17.27
2017-10-22T00:16:07.567Z,14.87
2017-10-22T00:18:33.817Z,16.03
2017-10-22T00:21:00.128Z,16.30
2017-10-22T00:23:26.348Z,17.87
2017-10-22T00:25:52.575Z,17.33
2017-10-22T00:28:18.802Z,18.03
2017-10-22T00:30:45.111Z,18.13
2017-10-22T00:33:12.079Z,20.20
2017-10-22T00:35:38.378Z,18.70
2017-10-22T00:38:04.683Z,19.47
2017-10-22T00:40:30.980Z,19.27
2017-10-22T00:42:57.177Z,19.13
2017-10-22T00:45:24.187Z,20.33
2017-10-22T00:47:50.431Z,18.87
2017-10-22T00:50:17.475Z,21.23
2017-10-22T00:52:43.679Z,22.60
2017-10-22T00:55:09.925Z,19.57
2017-10-22T00:57:36.181Z,20.67
2017-10-22T01:00:03.238Z,19.73
2017-10-22T01:02:29.459Z,20.67
2017-10-22T01:04:56.452Z,21.73
2017-10-22T01:07:22.639Z,19.93
2017-10-22T01:09:49.662Z,22.70
2017-10-22T01:12:17.394Z,22.30
2017-10-22T01:14:43.666Z,20.70
2017-10-22T01:17:09.930Z,22.10
2017-10-22T01:19:36.166Z,21.43
2017-10-22T01:22:02.384Z,22.63
2017-10-22T01:24:28.879Z,24.87
2017-10-22T01:26:55.830Z,23.50
2017-10-22T01:29:22.839Z,20.77
2017-10-22T01:31:49.079Z,22.23
2017-10-22T01:34:16.111Z,20.83
2017-10-22T01:36:43.116Z,21.77
2017-10-22T01:39:09.434Z,21.00
2017-10-22T01:41:36.411Z,22.97
2017-10-22T01:44:02.643Z,23.97
2017-10-22T01:46:28.886Z,22.80
2017-10-22T01:48:55.116Z,24.00
2017-10-22T01:51:22.188Z,23.90
2017-10-22T01:53:48.503Z,23.17
2017-10-22T01:56:14.809Z,25.40
2017-10-22T01:58:41.175Z,23.90
2017-10-22T02:01:07.454Z,25.00
2017-10-22T02:03:33.735Z,24.50
2017-10-22T02:06:02.515Z,24.10
2017-10-22T02:08:28.908Z,23.80
2017-10-22T02:10:55.182Z,24.27
2017-10-22T02:13:22.891Z,22.03
2017-10-22T02:15:49.182Z,22.03
2017-10-22T02:18:16.188Z,24.33
2017-10-22T02:20:42.436Z,24.10
2017-10-22T02:23:08.670Z,22.77
2017-10-22T02:25:34.916Z,24.07
2017-10-22T02:28:01.992Z,25.13
2017-10-22T02:30:28.247Z,25.03
2017-10-22T02:32:54.507Z,23.50
2017-10-22T02:35:20.865Z,23.90
2017-10-22T02:37:47.174Z,24.80
2017-10-22T02:40:13.506Z,25.30
2017-10-22T02:42:40.507Z,21.77
2017-10-22T02:45:06.801Z,24.37
2017-10-22T02:47:33.861Z,23.53
2017-10-22T02:50:00.164Z,24.97
2017-10-22T02:52:27.168Z,25.50
2017-10-22T02:54:53.438Z,23.97
2017-10-22T02:57:20.413Z,24.30
2017-10-22T02:59:46.744Z,23.33
2017-10-22T03:02:13.023Z,20.87
2017-10-22T03:04:39.250Z,24.70
2017-10-22T03:07:05.561Z,23.50
2017-10-22T03:09:31.787Z,22.33
2017-10-22T03:11:58.018Z,23.57
2017-10-22T03:14:24.242Z,21.57
2017-10-22T03:16:50.524Z,20.10
2017-10-22T03:19:17.487Z,21.27
2017-10-22T03:21:43.707Z,19.17
2017-10-22T03:24:09.994Z,17.37
2017-10-22T03:26:36.223Z,17.33
2017-10-22T03:29:02.434Z,19.07
2017-10-22T03:31:28.662Z,16.70
2017-10-22T03:33:54.858Z,18.37
2017-10-22T03:36:21.108Z,20.23
2017-10-22T03:38:47.353Z,17.20
2017-10-22T03:41:13.575Z,16.90
2017-10-22T03:43:39.814Z,16.77
2017-10-22T03:46:06.080Z,14.30
2017-10-22T03:48:33.036Z,14.83
2017-10-22T03:50:59.278Z,16.13
2017-10-22T03:53:25.518Z,13.87
2017-10-22T03:55:51.783Z,15.10
2017-10-22T03:58:18.038Z,13.77
2017-10-22T04:00:44.239Z,13.70
2017-10-22T04:03:10.472Z,11.67
2017-10-22T04:05:36.690Z,11.70
2017-10-22T04:08:02.956Z,10.87
2017-10-22T04:10:29.219Z,10.83
2017-10-22T04:12:55.474Z,10.30
2017-10-22T04:15:23.195Z,11.03
2017-10-22T04:17:49.457Z,9.97
2017-10-22T04:20:15.669Z,8.90
2017-10-22T04:22:41.927Z,10.47
2017-10-22T04:25:08.968Z,9.67
2017-10-22T04:27:35.223Z,9.90
2017-10-22T04:30:01.438Z,9.50
2017-10-22T04:32:28.425Z,8.80
2017-10-22T04:34:54.639Z,8.83
2017-10-22T04:37:20.859Z,8.60
2017-10-22T04:39:47.176Z,7.87
2017-10-22T04:42:14.177Z,8.27
2017-10-22T04:44:40.423Z,6.30
2017-10-22T04:47:06.634Z,5.63
2017-10-22T04:49:32.869Z,6.60
2017-10-22T04:51:59.077Z,5.90
2017-10-22T04:54:25.336Z,6.50
2017-10-22T04:56:52.288Z,6.33
2017-10-22T04:59:19.270Z,6.07
2017-10-22T05:01:45.502Z,7.07
2017-10-22T05:04:11.782Z,6.90
2017-10-22T05:06:38.791Z,7.10
2017-10-22T05:09:05.043Z,6.43
2017-10-22T05:11:31.244Z,8.30
2017-10-22T05:13:57.478Z,7.53
2017-10-22T05:16:23.682Z,7.80
2017-10-22T05:18:49.943Z,9.73
2017-10-22T05:21:16.170Z,9.13
2017-10-22T05:23:42.403Z,9.57
2017-10-22T05:26:08.671Z,8.53
2017-10-22T05:28:35.729Z,8.70
2017-10-22T05:31:01.955Z,8.00
2017-10-22T05:33:28.188Z,8.70
2017-10-22T05:35:54.411Z,9.53
2017-10-22T05:38:20.690Z,8.27
2017-10-22T05:40:46.924Z,8.37
2017-10-22T05:43:13.904Z,7.77
2017-10-22T05:45:40.846Z,8.73
2017-10-22T05:48:07.938Z,7.20
2017-10-22T05:50:34.219Z,7.53
2017-10-22T05:53:01.187Z,7.53
2017-10-22T05:55:27.490Z,7.27
2017-10-22T05:57:55.352Z,6.47
2017-10-22T06:00:22.357Z,6.10
2017-10-22T06:02:48.712Z,6.50
2017-10-22T06:05:14.979Z,5.70
2017-10-22T06:07:41.203Z,5.47
2017-10-22T06:10:07.474Z,5.93
2017-10-22T06:12:33.690Z,5.23
2017-10-22T06:14:59.946Z,5.30
2017-10-22T06:17:26.363Z,5.83
2017-10-22T06:19:52.649Z,5.53
2017-10-22T06:22:18.864Z,6.23
2017-10-22T06:24:45.138Z,6.30
2017-10-22T06:27:11.686Z,5.90
2017-10-22T06:29:37.908Z,5.40
2017-10-22T06:32:04.152Z,5.97
2017-10-22T06:34:30.416Z,6.33
2017-10-22T06:36:57.493Z,6.00
2017-10-22T06:39:23.816Z,5.83
2017-10-22T06:41:50.083Z,6.30
2017-10-22T06:44:16.355Z,6.13
2017-10-22T06:46:43.381Z,6.00
2017-10-22T06:49:10.449Z,7.27
2017-10-22T06:51:37.464Z,6.00
2017-10-22T06:54:04.582Z,5.90
2017-10-22T06:56:30.854Z,6.10
2017-10-22T06:58:57.953Z,5.77
2017-10-22T07:01:24.283Z,6.80
2017-10-22T07:03:50.698Z,6.60
2017-10-22T07:06:16.969Z,6.17
2017-10-22T07:08:43.304Z,6.30
2017-10-22T07:11:09.600Z,6.07
2017-10-22T07:13:35.991Z,7.40
2017-10-22T07:16:02.223Z,7.93
2017-10-22T07:18:29.207Z,7.20
2017-10-22T07:20:57.785Z,6.37
2017-10-22T07:23:24.028Z,5.43
2017-10-22T07:25:50.390Z,5.83
2017-10-22T07:28:17.121Z,5.73
2017-10-22T07:30:43.385Z,5.93
2017-10-22T07:33:10.398Z,5.07
2017-10-22T07:35:36.687Z,5.63
2017-10-22T07:38:02.928Z,5.90
2017-10-22T07:40:29.239Z,5.27
2017-10-22T07:42:55.475Z,5.20
2017-10-22T07:45:22.952Z,5.50
2017-10-22T07:47:49.219Z,5.60
2017-10-22T07:50:15.450Z,4.60
2017-10-22T07:52:42.581Z,5.77
2017-10-22T07:55:09.607Z,4.80
2017-10-22T07:57:35.864Z,4.40
2017-10-22T08:00:02.108Z,4.53
2017-10-22T08:02:29.082Z,3.97
2017-10-22T08:04:55.647Z,4.30
2017-10-22T08:07:22.610Z,3.90
2017-10-22T08:09:49.584Z,3.97
2017-10-22T08:12:16.760Z,4.73
2017-10-22T08:14:43.624Z,3.50
2017-10-22T08:17:11.832Z,3.83
2017-10-22T08:19:39.191Z,3.50
2017-10-22T08:22:05.475Z,3.53
2017-10-22T08:24:32.599Z,4.30
2017-10-22T08:26:58.886Z,5.00
2017-10-22T08:29:25.141Z,4.60
2017-10-22T08:31:52.224Z,4.20
2017-10-22T08:34:19.657Z,3.80
2017-10-22T08:36:48.000Z,3.80
2017-10-22T08:39:15.315Z,3.83
2017-10-22T08:41:42.105Z,3.53
2017-10-22T08:44:10.898Z,3.40
2017-10-22T08:46:37.244Z,2.97
2017-10-22T08:49:03.602Z,3.80
2017-10-22T08:51:30.025Z,3.93
2017-10-22T08:54:09.112Z,3.37
2017-10-22T08:56:35.490Z,3.47
2017-10-22T08:59:06.209Z,3.97
2017-10-22T09:01:33.070Z,4.37
2017-10-22T09:03:59.680Z,4.23
2017-10-22T09:06:26.054Z,3.73
2017-10-22T09:08:52.321Z,3.73
2017-10-22T09:11:19.553Z,4.17
2017-10-22T09:13:45.899Z,4.40
2017-10-22T09:16:24.148Z,4.30
2017-10-22T09:18:51.287Z,4.20
2017-10-22T09:21:18.881Z,3.70
2017-10-22T09:23:45.283Z,3.87
2017-10-22T09:26:11.694Z,3.63
2017-10-22T09:28:38.688Z,3.67
2017-10-22T09:31:07.897Z,3.30
2017-10-22T09:33:34.215Z,4.67
2017-10-22T09:36:00.460Z,3.70
2017-10-22T09:38:26.713Z,3.27
2017-10-22T09:40:53.719Z,4.40
2017-10-22T09:43:19.972Z,3.33
2017-10-22T09:45:46.293Z,3.23
2017-10-22T09:48:12.550Z,3.00
2017-10-22T09:50:39.619Z,3.83
2017-10-22T09:53:05.867Z,3.10
2017-10-22T09:55:32.142Z,3.77
2017-10-22T09:57:59.154Z,3.57
2017-10-22T10:00:25.437Z,2.73
2017-10-22T10:02:51.690Z,3.43
2017-10-22T10:05:18.066Z,7.13
2017-10-22T10:07:44.555Z,4.10
2017-10-22T10:10:10.839Z,3.20
2017-10-22T10:12:37.936Z,4.50
2017-10-22T10:15:04.277Z,3.33
2017-10-22T10:17:30.554Z,3.60
2017-10-22T10:19:57.606Z,4.03
2017-10-22T10:22:24.747Z,4.60
2017-10-22T10:24:51.826Z,3.33
2017-10-22T10:27:18.282Z,4.00
2017-10-22T10:29:44.715Z,5.53
2017-10-22T10:32:11.223Z,4.20
2017-10-22T10:34:37.643Z,5.30
2017-10-22T10:37:04.053Z,4.13
2017-10-22T10:39:31.277Z,3.03
2017-10-22T10:41:57.623Z,97.27
2017-10-22T10:44:24.095Z,3.50
2017-10-22T10:46:50.495Z,3.87
2017-10-22T10:49:16.898Z,2.70
2017-10-22T10:51:43.923Z,2.40
2017-10-22T10:54:10.234Z,3.20
2017-10-22T10:56:37.261Z,3.30
2017-10-22T10:59:04.304Z,2.90
2017-10-22T11:01:31.465Z,2.30
2017-10-22T11:03:58.487Z,3.00
2017-10-22T11:06:25.510Z,2.90
2017-10-22T11:08:51.844Z,3.50
2017-10-22T11:11:18.098Z,5.30
2017-10-22T11:13:45.156Z,7.30
2017-10-22T11:16:12.164Z,3.60
2017-10-22T11:18:38.412Z,3.70
2017-10-22T11:21:04.730Z,3.43
2017-10-22T11:23:31.121Z,2.70
2017-10-22T11:25:57.389Z,4.30
2017-10-22T11:28:24.624Z,3.80
2017-10-22T11:30:51.014Z,4.60
2017-10-22T11:33:17.452Z,4.00
2017-10-22T11:35:43.857Z,7.10
2017-10-22T11:38:10.292Z,7.20
2017-10-22T11:40:37.530Z,11.17
2017-10-22T11:43:03.879Z,10.10
2017-10-22T11:45:30.161Z,8.90
2017-10-22T11:47:56.490Z,5.70
2017-10-22T11:50:22.760Z,5.30
2017-10-22T11:52:49.782Z,3.70
2017-10-22T11:55:16.832Z,3.87
2017-10-22T11:57:44.092Z,4.90
2017-10-22T12:00:10.862Z,5.27
2017-10-22T12:02:37.186Z,3.60
2017-10-22T12:05:04.188Z,3.23
2017-10-22T12:07:30.428Z,3.33
2017-10-22T12:09:56.691Z,4.07
2017-10-22T12:12:23.768Z,3.93
2017-10-22T12:14:50.162Z,3.63
2017-10-22T12:17:16.419Z,3.40
2017-10-22T12:19:42.821Z,5.20
2017-10-22T12:22:09.850Z,3.57
2017-10-22T12:24:36.123Z,4.57
2017-10-22T12:27:02.395Z,3.37
2017-10-22T12:29:28.642Z,5.47
2017-10-22T12:31:54.888Z,3.60
2017-10-22T12:34:21.909Z,3.97
2017-10-22T12:36:48.213Z,3.30
2017-10-22T12:39:14.419Z,5.63
2017-10-22T12:41:40.783Z,4.50
2017-10-22T12:44:08.681Z,4.37
2017-10-22T12:46:35.057Z,5.43
2017-10-22T12:49:01.441Z,4.90
2017-10-22T12:51:27.881Z,5.23
2017-10-22T12:53:54.144Z,3.13
2017-10-22T12:56:20.334Z,5.37
2017-10-22T12:58:47.427Z,4.50
2017-10-22T13:01:13.710Z,4.50
2017-10-22T13:03:39.982Z,2.93
2017-10-22T13:06:06.200Z,4.37
2017-10-22T13:08:32.438Z,5.40
2017-10-22T13:10:58.676Z,5.50
2017-10-22T13:13:25.063Z,7.20
2017-10-22T13:15:51.337Z,6.40
2017-10-22T13:18:17.642Z,7.97
2017-10-22T13:20:43.887Z,5.67
2017-10-22T13:23:10.166Z,5.90
2017-10-22T13:25:37.175Z,4.30
2017-10-22T13:28:03.398Z,4.00
2017-10-22T13:30:29.644Z,2.27
2017-10-22T13:32:55.918Z,4.40
2017-10-22T13:35:22.904Z,4.93
2017-10-22T13:37:49.179Z,4.33
2017-10-22T13:40:15.480Z,4.80
2017-10-22T13:42:42.546Z,4.30
2017-10-22T13:45:09.591Z,4.93
2017-10-22T13:47:35.840Z,5.17
2017-10-22T13:50:02.848Z,7.30
2017-10-22T13:52:29.128Z,11.60
2017-10-22T13:54:55.387Z,7.30
2017-10-22T13:57:21.620Z,5.63
2017-10-22T13:59:47.947Z,6.40
2017-10-22T14:02:14.174Z,4.40
2017-10-22T14:04:40.420Z,12.40
2017-10-22T14:07:06.626Z,4.47
2017-10-22T14:09:32.864Z,3.40
2017-10-22T14:11:59.119Z,3.00
2017-10-22T14:14:25.432Z,1.93
2017-10-22T14:16:51.694Z,2.10
2017-10-22T14:19:18.658Z,2.43
2017-10-22T14:21:44.923Z,2.93
2017-10-22T14:24:11.150Z,3.20
2017-10-22T14:26:37.430Z,2.33
2017-10-22T14:29:04.419Z,2.80
2017-10-22T14:31:30.718Z,3.50
2017-10-22T14:33:57.013Z,3.03
2017-10-22T14:36:23.979Z,2.90
2017-10-22T14:38:51.016Z,2.83
2017-10-22T14:41:17.990Z,2.80
2017-10-22T14:43:44.211Z,3.70
2017-10-22T14:46:10.447Z,3.73
2017-10-22T14:48:36.666Z,6.00
2017-10-22T14:51:02.934Z,3.37
2017-10-22T14:53:29.154Z,5.23
2017-10-22T14:55:55.386Z,5.30
2017-10-22T14:58:21.599Z,3.00
2017-10-22T15:00:47.855Z,2.20
2017-10-22T15:03:14.054Z,3.97
2017-10-22T15:05:40.266Z,3.20
2017-10-22T15:08:06.490Z,3.30
2017-10-22T15:10:32.730Z,3.63
2017-10-22T15:12:58.959Z,2.60
2017-10-22T15:15:25.214Z,5.13
2017-10-22T15:17:51.485Z,6.47
2017-10-22T15:20:18.455Z,4.40
2017-10-22T15:22:44.686Z,2.80
2017-10-22T15:25:10.911Z,4.67
2017-10-22T15:27:37.126Z,3.53
2017-10-22T15:30:04.109Z,3.67
2017-10-22T15:32:30.316Z,6.10
2017-10-22T15:34:56.570Z,8.80
2017-10-22T15:37:22.810Z,3.23
2017-10-22T15:39:49.555Z,3.20
2017-10-22T15:42:15.803Z,3.77
2017-10-22T15:44:43.079Z,3.90
2017-10-22T15:47:09.406Z,7.47
2017-10-22T15:49:35.707Z,7.60
2017-10-22T15:52:01.980Z,7.23
2017-10-22T15:54:28.192Z,6.53
2017-10-22T15:56:54.450Z,5.90
2017-10-22T15:59:20.710Z,6.37
2017-10-22T16:01:46.934Z,3.37
2017-10-22T16:04:13.147Z,3.03
2017-10-22T16:06:39.402Z,2.93
2017-10-22T16:09:06.411Z,4.60
2017-10-22T16:11:32.646Z,3.10
2017-10-22T16:13:58.854Z,3.63
2017-10-22T16:16:25.093Z,4.60
2017-10-22T16:18:51.403Z,5.83
2017-10-22T16:21:17.666Z,7.73
2017-10-22T16:23:43.882Z,17.67
2017-10-22T16:26:10.095Z,5.20
2017-10-22T16:28:36.314Z,5.43
2017-10-22T16:31:02.585Z,7.40
2017-10-22T16:33:28.817Z,7.87
2017-10-22T16:35:55.083Z,8.23
2017-10-22T16:38:21.300Z,8.90
2017-10-22T16:40:48.271Z,11.00
2017-10-22T16:43:14.502Z,4.17
2017-10-22T16:45:40.704Z,4.50
2017-10-22T16:48:07.660Z,5.50
2017-10-22T16:50:33.879Z,7.00
2017-10-22T16:53:00.950Z,4.90
2017-10-22T16:55:27.216Z,4.63
2017-10-22T16:57:54.195Z,4.43
2017-10-22T17:00:21.203Z,3.53
2017-10-22T17:02:47.431Z,3.27
2017-10-22T17:05:13.648Z,3.23
2017-10-22T17:07:40.042Z,3.23
2017-10-22T17:10:06.345Z,4.40
2017-10-22T17:12:33.378Z,5.57
2017-10-22T17:14:59.597Z,6.23
2017-10-22T17:17:25.943Z,7.27
2017-10-22T17:19:52.160Z,3.33
2017-10-22T17:22:18.415Z,4.03
2017-10-22T17:24:45.540Z,3.23
2017-10-22T17:27:11.787Z,3.40
2017-10-22T17:29:38.088Z,5.10
2017-10-22T17:32:04.392Z,3.90
2017-10-22T17:34:37.632Z,7.60
2017-10-22T17:37:04.647Z,4.67
2017-10-22T17:39:30.930Z,3.30
2017-10-22T17:41:57.164Z,3.47
2017-10-22T17:44:23.405Z,4.70
2017-10-22T17:46:49.752Z,4.80
2017-10-22T17:49:15.996Z,4.60
2017-10-22T17:51:42.295Z,5.70
2017-10-22T17:54:08.512Z,5.63
2017-10-22T17:56:49.726Z,4.23
2017-10-22T17:59:15.965Z,4.00
2017-10-22T18:01:42.215Z,3.80
2017-10-22T18:04:09.196Z,3.73
2017-10-22T18:06:35.795Z,3.70
2017-10-22T18:09:02.158Z,4.30
2017-10-22T18:11:28.442Z,5.57
2017-10-22T18:13:54.727Z,6.87
2017-10-22T18:16:20.948Z,6.47
2017-10-22T18:18:47.200Z,4.63
2017-10-22T18:21:13.418Z,4.40
2017-10-22T18:23:39.688Z,3.80
2017-10-22T18:26:07.461Z,3.10
2017-10-22T18:28:34.588Z,10.07
2017-10-22T18:31:00.849Z,14.57
2017-10-22T18:33:27.854Z,7.10
2017-10-22T18:35:54.147Z,6.70
2017-10-22T18:38:20.420Z,4.73
2017-10-22T18:40:47.660Z,3.93
2017-10-22T18:43:13.950Z,3.60
2017-10-22T18:45:40.245Z,3.20
2017-10-22T18:48:07.258Z,3.30
2017-10-22T18:50:33.653Z,2.93
2017-10-22T18:53:00.894Z,2.93
2017-10-22T18:55:27.957Z,2.87
2017-10-22T18:57:54.242Z,3.00
2017-10-22T19:00:20.676Z,3.60
2017-10-22T19:02:47.004Z,4.40
2017-10-22T19:05:13.475Z,2.70
2017-10-22T19:07:39.998Z,2.90
2017-10-22T19:10:06.459Z,3.40
2017-10-22T19:12:32.850Z,3.10
2017-10-22T19:14:59.219Z,2.83
2017-10-22T19:17:25.677Z,3.30
2017-10-22T19:19:51.952Z,3.10
2017-10-22T19:22:19.226Z,5.67
2017-10-22T19:24:45.525Z,3.27
2017-10-22T19:27:12.537Z,3.27
2017-10-22T19:29:39.869Z,3.77
2017-10-22T19:32:07.018Z,4.20
2017-10-22T19:34:33.453Z,3.53
2017-10-22T19:36:59.752Z,5.10
2017-10-22T19:39:26.780Z,3.50
2017-10-22T19:41:53.793Z,3.50
2017-10-22T19:44:20.119Z,4.83
2017-10-22T19:46:46.363Z,3.80
2017-10-22T19:49:12.631Z,8.07
2017-10-22T19:51:39.750Z,6.67
2017-10-22T19:54:06.858Z,6.07
2017-10-22T19:56:33.252Z,3.60
2017-10-22T19:58:59.665Z,3.47
2017-10-22T20:01:26.002Z,3.10
2017-10-22T20:03:52.311Z,3.87
2017-10-22T20:06:18.674Z,3.60
2017-10-22T20:08:44.962Z,3.10
2017-10-22T20:11:11.503Z,3.10
2017-10-22T20:13:38.151Z,3.93
2017-10-22T20:16:05.394Z,3.00
2017-10-22T20:18:32.395Z,2.83
2017-10-22T20:20:59.950Z,3.83
2017-10-22T20:23:27.205Z,3.07
2017-10-22T20:25:53.521Z,3.60
2017-10-22T20:28:20.640Z,3.03
2017-10-22T20:30:46.910Z,3.30
2017-10-22T20:33:13.597Z,3.33
2017-10-22T20:35:39.960Z,3.13
2017-10-22T20:38:07.078Z,5.27
2017-10-22T20:40:33.302Z,3.43
2017-10-22T20:42:59.604Z,3.23
2017-10-22T20:45:25.999Z,3.70
2017-10-22T20:47:53.062Z,4.07
2017-10-22T20:50:20.093Z,6.00
2017-10-22T20:52:49.384Z,6.10
2017-10-22T20:55:16.773Z,5.10
2017-10-22T20:57:53.389Z,4.20
2017-10-22T21:00:20.074Z,5.10
2017-10-22T21:02:46.279Z,4.80
2017-10-22T21:05:15.579Z,6.73
2017-10-22T21:07:42.588Z,4.77
2017-10-22T21:10:08.835Z,5.53
2017-10-22T21:12:35.050Z,5.10
2017-10-22T21:15:01.344Z,5.07
2017-10-22T21:17:27.595Z,4.67
2017-10-22T21:19:53.821Z,5.83
2017-10-22T21:22:20.019Z,5.03
2017-10-22T21:24:46.267Z,5.10
2017-10-22T21:27:12.638Z,5.03
2017-10-22T21:29:38.887Z,4.57
2017-10-22T21:32:05.884Z,5.70
2017-10-22T21:34:32.558Z,5.57
2017-10-22T21:36:59.546Z,5.10
2017-10-22T21:39:25.794Z,5.00
2017-10-22T21:41:51.987Z,5.43
2017-10-22T21:44:18.221Z,5.10
2017-10-22T21:46:44.424Z,5.00
2017-10-22T21:49:11.436Z,5.10
2017-10-22T21:51:37.690Z,6.30
2017-10-22T21:54:03.939Z,5.90
2017-10-22T21:56:30.206Z,5.30
2017-10-22T21:58:56.464Z,5.80
2017-10-22T22:01:22.703Z,6.20
2017-10-22T22:03:49.697Z,6.80
2017-10-22T22:06:15.926Z,6.20
2017-10-22T22:08:42.167Z,6.10
2017-10-22T22:11:08.412Z,6.37
2017-10-22T22:13:34.669Z,6.50
2017-10-22T22:16:01.647Z,6.80
2017-10-22T22:18:27.877Z,5.30
2017-10-22T22:20:54.129Z,5.90
2017-10-22T22:23:20.471Z,6.37
2017-10-22T22:25:46.691Z,6.40
2017-10-22T22:28:12.898Z,6.50
2017-10-22T22:30:39.240Z,6.00
2017-10-22T22:33:05.483Z,5.97
2017-10-22T22:35:31.719Z,5.80
2017-10-22T22:37:57.940Z,5.40
2017-10-22T22:40:24.977Z,7.10
2017-10-22T22:42:51.220Z,5.67
2017-10-22T22:45:17.446Z,6.20
2017-10-22T22:47:43.687Z,6.57
2017-10-22T22:50:10.681Z,5.67
2017-10-22T22:52:37.774Z,5.47
2017-10-22T22:55:03.979Z,6.20
2017-10-22T22:57:30.230Z,6.57
2017-10-22T22:59:56.424Z,5.27
2017-10-22T23:02:22.655Z,6.07
2017-10-22T23:04:48.858Z,5.70
2017-10-22T23:07:15.083Z,6.77
2017-10-22T23:09:41.313Z,6.00
2017-10-22T23:12:07.563Z,5.87
2017-10-22T23:14:33.793Z,6.73
2017-10-22T23:17:00.191Z,6.97
2017-10-22T23:19:26.401Z,8.03
2017-10-22T23:21:53.378Z,7.30
2017-10-22T23:24:19.623Z,7.20
2017-10-22T23:26:45.856Z,7.60
2017-10-22T23:29:12.072Z,6.87
2017-10-22T23:31:38.300Z,7.80
2017-10-22T23:34:04.518Z,7.70
2017-10-22T23:36:30.770Z,8.00
2017-10-22T23:39:03.975Z,7.50
2017-10-22T23:41:30.305Z,7.43
2017-10-22T23:43:56.511Z,7.83
2017-10-22T23:46:22.737Z,8.47
2017-10-22T23:48:48.978Z,8.10
2017-10-22T23:51:15.221Z,8.63
2017-10-22T23:53:41.453Z,8.37
2017-10-22T23:56:07.662Z,7.80
2017-10-22T23:58:33.879Z,8.40
